Latest Weather Observations for Laverton

IDV60901

Issued at 8:41 am EST Wednesday 15 July 2020 (issued every 10 minutes, with the page automatically refreshed every 10 minutes)

About weather observations | Map of Melbourne area stations | Latest observations for Melbourne area | Other Formats
Station Details ID: 087031 Name: LAVERTON RAAF Lat: -37.86 Lon: 144.76 Height: 20.1 m
Data from the previous 72 hours. | See also: Recent months at Laverton
Date/Time
EST
Temp
°C
App
Temp
°C
Dew
Point
°C
Rel
Hum
%
Delta-T
°C
Wind Press
QNH
hPa
Press
MSL
hPa
Rain since
9am
mm
Dir  Spd
km/h
Gust
km/h
Spd
kts
Gust
kts
15/08:30am 9.3 6.7 7.7 90 0.8 ESE 11 20 6 11 1025.7 1025.7 0.2
15/08:00am 8.5 5.5 7.7 95 0.4 SE 13 17 7 9 1025.7 1025.7 0.0
15/07:30am 8.3 5.2 7.4 94 0.4 SE 13 19 7 10 1025.7 1025.7 0.0
15/07:00am 8.6 5.2 7.7 94 0.4 SE 15 24 8 13 1025.7 1025.7 0.0
15/06:30am 8.6 5.2 7.7 94 0.4 SE 15 24 8 13 1025.8 1025.8 0.0
15/06:00am 8.8 5.5 7.9 94 0.4 SE 15 22 8 12 1025.6 1025.6 0.0
15/05:30am 8.7 5.5 8.4 98 0.1 SE 15 20 8 11 1025.6 1025.6 0.0
15/05:00am 8.6 6.1 8.3 98 0.1 SE 11 15 6 8 1025.9 1025.9 0.0
15/04:30am 9.1 6.4 8.8 98 0.1 SE 13 17 7 9 1025.8 1025.8 0.0
15/04:00am 9.2 6.5 9.1 99 0.0 SE 13 20 7 11 1026.1 1026.1 0.0
15/03:30am 8.9 5.8 8.8 99 0.0 SE 15 20 8 11 1026.3 1026.3 0.0
15/03:00am 9.1 6.4 9.0 99 0.0 SE 13 19 7 10 1026.6 1026.6 0.0
15/02:30am 9.4 5.5 8.8 96 0.3 SE 19 24 10 13 1026.6 1026.6 0.0
15/02:00am 9.2 5.6 8.3 94 0.4 SE 17 24 9 13 1026.9 1026.9 0.0
15/01:30am 9.3 5.8 8.7 96 0.3 SE 17 22 9 12 1026.9 1026.9 0.0
15/01:00am 8.6 5.7 8.0 96 0.3 SE 13 19 7 10 1026.9 1026.9 0.0
15/12:30am 8.8 5.9 8.0 95 0.4 SE 13 20 7 11 1027.1 1027.1 0.0
15/12:00am 9.1 6.3 8.5 96 0.3 SE 13 19 7 10 1027.5 1027.5 0.0
 
Date/Time
EST
Temp
°C
App
Temp
°C
Dew
Point
°C
Rel
Hum
%
Delta-T
°C
Wind Press
QNH
hPa
Press
MSL
hPa
Rain since
9am
mm
Dir  Spd
km/h
Gust
km/h
Spd
kts
Gust
kts
14/11:30pm 8.8 6.3 8.4 97 0.2 SE 11 17 6 9 1027.7 1027.7 0.0
14/11:00pm 8.8 5.9 8.0 95 0.4 SE 13 19 7 10 1027.8 1027.8 0.0
14/10:30pm 9.4 6.2 8.5 94 0.4 SE 15 20 8 11 1028.0 1028.0 0.0
14/10:00pm 9.4 6.2 8.3 93 0.5 SE 15 20 8 11 1028.1 1028.1 0.0
14/09:30pm 9.7 5.8 8.5 92 0.6 SE 19 24 10 13 1028.2 1028.2 0.0
14/09:00pm 9.7 6.1 8.5 92 0.6 SE 17 22 9 12 1028.3 1028.3 0.0
14/08:30pm 9.6 6.4 8.4 92 0.6 SE 15 20 8 11 1028.5 1028.5 0.0
14/08:00pm 9.7 6.9 8.5 92 0.6 SE 13 17 7 9 1028.3 1028.3 0.0
14/07:30pm 10.0 7.2 8.6 91 0.7 SE 13 20 7 11 1028.1 1028.1 0.0
14/07:00pm 10.2 7.0 8.3 88 0.9 SSE 15 20 8 11 1028.0 1028.0 0.0
14/06:30pm 10.6 7.4 8.5 87 1.0 SSE 15 24 8 13 1027.8 1027.8 0.0
14/06:00pm 10.7 7.1 8.5 86 1.1 SSE 17 24 9 13 1027.7 1027.7 0.0
14/05:30pm 11.3 8.4 8.3 82 1.5 SSE 13 20 7 11 1027.6 1027.6 0.0
14/05:00pm 11.6 8.3 8.1 79 1.7 SSE 15 20 8 11 1027.6 1027.6 0.0
14/04:30pm 12.0 8.8 8.5 79 1.7 SSE 15 20 8 11 1027.5 1027.5 0.0
14/04:00pm 12.2 8.0 7.5 73 2.3 SSE 19 28 10 15 1027.5 1027.5 0.0
14/03:30pm 12.9 8.4 6.0 63 3.3 SE 19 26 10 14 1027.3 1027.3 0.0
14/03:00pm 13.0 8.1 5.2 59 3.6 SE 20 32 11 17 1027.2 1027.2 0.0
14/02:30pm 13.0 8.2 5.7 61 3.4 SE 20 30 11 16 1027.3 1027.3 0.0
14/02:00pm 13.1 8.4 5.3 59 3.6 SE 19 26 10 14 1027.6 1027.6 0.0
14/01:30pm 12.7 7.9 5.4 61 3.4 SE 20 26 11 14 1027.9 1027.9 0.0
14/01:00pm 12.8 8.3 5.9 63 3.2 SSE 19 30 10 16 1028.3 1028.3 0.0
14/12:30pm 12.5 7.3 5.7 63 3.2 SE 22 32 12 17 1028.3 1028.3 0.0
14/12:00pm 12.6 7.0 5.5 62 3.3 SSE 24 32 13 17 1028.7 1028.7 0.0
14/11:30am 12.3 7.7 6.4 67 2.8 SE 20 28 11 15 1029.1 1029.1 0.0
14/11:00am 12.2 8.2 8.1 76 2.0 SE 19 26 10 14 1029.4 1029.4 0.0
14/10:30am 11.9 8.6 8.2 78 1.8 SE 15 22 8 12 1029.9 1029.9 0.0
14/10:00am 11.8 8.6 8.3 79 1.7 SE 15 22 8 12 1029.8 1029.8 0.0
14/09:30am 11.5 8.3 8.4 81 1.5 SE 15 20 8 11 1029.9 1029.9 0.0
14/09:00am 11.2 7.5 7.9 80 1.6 SSE 17 24 9 13 1029.8 1029.8 0.0
14/08:30am 11.1 7.0 8.0 81 1.5 SE 19 28 10 15 1029.6 1029.6 0.0
14/08:00am 10.9 8.0 8.3 84 1.3 ESE 13 19 7 10 1029.6 1029.6 0.0
14/07:30am 10.7 7.8 8.3 85 1.2 SE 13 22 7 12 1029.4 1029.4 0.0
14/07:00am 10.8 7.2 8.4 85 1.2 SE 17 24 9 13 1029.2 1029.2 0.0
14/06:30am 10.6 7.4 8.5 87 1.0 SE 15 22 8 12 1028.7 1028.7 0.0
14/06:00am 10.0 6.4 8.3 89 0.8 SSE 17 24 9 13 1028.5 1028.5 0.0
14/05:30am 10.1 6.6 8.7 91 0.7 SE 17 24 9 13 1028.2 1028.2 0.0
14/05:00am 10.1 6.7 9.0 93 0.5 SSE 17 24 9 13 1028.0 1028.0 0.0
14/04:30am 10.1 6.8 9.5 96 0.3 SSE 17 24 9 13 1027.8 1027.8 0.0
14/04:00am 9.8 7.7 9.7 99 0.0 SSE 11 17 6 9 1027.9 1027.9 0.0
14/03:30am 8.6 6.6 8.5 99 0.0 SSE 9 15 5 8 1027.9 1027.9 0.0
14/03:00am 9.1 7.5 8.8 98 0.1 SE 7 11 4 6 1027.9 1027.9 0.0
14/02:30am 9.4 7.5 9.1 98 0.1 SSE 9 13 5 7 1027.9 1027.9 0.0
14/02:00am 9.5 7.3 9.2 98 0.1 SE 11 17 6 9 1028.0 1028.0 0.0
14/01:30am 9.5 7.3 9.2 98 0.1 SSE 11 15 6 8 1027.9 1027.9 0.0
14/01:00am 9.8 7.6 9.5 98 0.1 SSE 11 15 6 8 1028.1 1028.1 0.0
14/12:30am 9.8 7.6 9.2 96 0.3 SE 11 17 6 9 1028.1 1028.1 0.0
14/12:00am 10.2 7.6 9.4 95 0.4 SE 13 19 7 10 1028.1 1028.1 0.0
 
Date/Time
EST
Temp
°C
App
Temp
°C
Dew
Point
°C
Rel
Hum
%
Delta-T
°C
Wind Press
QNH
hPa
Press
MSL
hPa
Rain since
9am
mm
Dir  Spd
km/h
Gust
km/h
Spd
kts
Gust
kts
13/11:30pm 10.2 7.2 9.4 95 0.4 SSE 15 20 8 11 1028.1 1028.1 0.0
13/11:00pm 10.0 7.8 9.4 96 0.3 SSE 11 17 6 9 1028.2 1028.2 0.0
13/10:30pm 10.0 7.8 9.5 97 0.2 SSE 11 17 6 9 1028.2 1028.2 0.0
13/10:00pm 10.2 7.7 9.7 97 0.2 SSE 13 17 7 9 1028.2 1028.2 0.0
13/09:30pm 10.3 7.9 10.0 98 0.2 SSE 13 17 7 9 1028.1 1028.1 0.0
13/09:00pm 10.6 8.2 10.0 96 0.3 SE 13 19 7 10 1028.3 1028.3 0.0
13/08:30pm 10.5 8.4 9.9 96 0.3 SE 11 17 6 9 1028.1 1028.1 0.0
13/08:00pm 10.7 7.8 9.8 94 0.5 SSE 15 24 8 13 1028.1 1028.1 0.0
13/07:30pm 11.1 7.5 9.9 92 0.6 SSE 19 28 10 15 1027.9 1027.9 0.0
13/07:00pm 11.1 7.5 9.9 92 0.6 SSE 19 26 10 14 1027.7 1027.7 0.0
13/06:30pm 11.4 7.6 9.8 90 0.8 SSE 20 30 11 16 1027.4 1027.4 0.0
13/06:00pm 11.5 7.7 9.9 90 0.8 SSE 20 28 11 15 1027.1 1027.1 0.0
13/05:30pm 11.8 8.0 9.7 87 1.1 SSE 20 35 11 19 1026.7 1026.7 0.0
13/05:00pm 12.1 7.5 9.7 85 1.2 SSE 24 33 13 18 1026.4 1026.4 0.0
13/04:30pm 12.7 8.4 9.5 81 1.6 SSE 22 32 12 17 1026.1 1026.1 0.0
13/04:00pm 13.0 8.1 9.8 81 1.6 SSE 26 37 14 20 1025.7 1025.7 0.0
13/03:30pm 13.4 8.9 10.0 80 1.8 SSE 24 35 13 19 1025.6 1025.6 0.0
13/03:00pm 13.7 10.0 10.1 79 1.9 S 20 30 11 16 1025.6 1025.6 0.0
13/02:30pm 13.9 9.6 9.5 75 2.3 SSE 22 33 12 18 1025.3 1025.3 0.0
13/02:00pm 14.2 10.0 9.8 75 2.3 SSE 22 35 12 19 1025.1 1025.1 0.0
13/01:30pm 14.3 9.8 9.9 75 2.3 SSE 24 30 13 16 1025.2 1025.2 0.0
13/01:00pm 14.0 9.4 9.6 75 2.2 SSE 24 33 13 18 1025.6 1025.6 0.0
13/12:30pm 13.8 9.2 9.8 77 2.1 SSE 24 33 13 18 1025.9 1025.9 0.0
13/12:00pm 13.6 9.8 9.8 78 1.9 SE 20 26 11 14 1026.2 1026.2 0.0
13/11:30am 13.6 9.9 10.2 80 1.8 SE 20 33 11 18 1026.5 1026.5 0.0
13/11:00am 13.2 9.1 10.2 82 1.5 SE 22 33 12 18 1026.6 1026.6 0.0
13/10:30am 12.4 8.5 9.6 83 1.4 SE 20 35 11 19 1026.5 1026.5 0.0
13/10:00am 12.4 8.7 10.1 86 1.2 SE 20 30 11 16 1026.5 1026.5 0.0
13/09:30am 11.8 8.7 10.2 90 0.8 SSE 17 26 9 14 1026.5 1026.5 0.0
13/09:00am 11.5 8.3 10.1 91 0.7 SE 17 26 9 14 1026.3 1026.3 0.2
13/08:30am 10.8 8.1 10.2 96 0.3 SSE 15 22 8 12 1025.9 1025.9 0.2
13/08:00am 10.8 7.6 10.0 95 0.4 SSE 17 24 9 13 1025.6 1025.6 0.2
13/07:30am 10.8 7.3 10.3 97 0.3 SSE 19 28 10 15 1025.4 1025.4 0.2
13/07:00am 10.8 7.6 9.9 94 0.5 SSE 17 22 9 12 1025.1 1025.1 0.2
13/06:30am 10.7 7.1 9.8 94 0.5 SSE 19 28 10 15 1024.9 1024.9 0.2
13/06:00am 10.7 7.5 9.8 94 0.5 SE 17 26 9 14 1024.6 1024.6 0.2
13/05:30am 10.5 7.6 9.7 95 0.4 SE 15 24 8 13 1024.4 1024.4 0.2
13/05:00am 10.7 7.9 10.1 96 0.3 SSE 15 20 8 11 1024.2 1024.2 0.2
13/04:30am 10.8 7.6 10.0 95 0.4 SSE 17 24 9 13 1024.0 1024.0 0.2
13/04:00am 10.9 8.1 10.1 95 0.4 SSE 15 22 8 12 1023.9 1023.9 0.2
13/03:30am 11.0 7.9 10.4 96 0.3 SSE 17 22 9 12 1023.9 1023.9 0.2
13/03:00am 10.9 7.9 10.7 99 0.1 SSE 17 22 9 12 1024.1 1024.1 0.2
13/02:30am 10.5 7.4 10.3 99 0.1 SSE 17 22 9 12 1023.9 1023.9 0.2
13/02:00am 10.2 7.8 10.2 100 0.0 SSE 13 19 7 10 1023.7 1023.7 0.2
13/01:30am 9.8 7.7 9.8 100 0.0 S 11 15 6 8 1023.6 1023.6 0.2
13/01:00am 10.2 8.2 10.2 100 0.0 SSE 11 17 6 9 1023.6 1023.6 0.0
13/12:30am 10.2 7.8 10.2 100 0.0 SSE 13 19 7 10 1023.5 1023.5 0.0
13/12:00am 10.2 7.8 10.2 100 0.0 S 13 19 7 10 1023.3 1023.3 0.0
 
Date/Time
EST
Temp
°C
App
Temp
°C
Dew
Point
°C
Rel
Hum
%
Delta-T
°C
Wind Press
QNH
hPa
Press
MSL
hPa
Rain since
9am
mm
Dir  Spd
km/h
Gust
km/h
Spd
kts
Gust
kts
12/11:30pm 10.3 8.0 10.3 100 0.0 SSE 13 19 7 10 1023.1 1023.1 0.0
12/11:00pm 9.8 7.7 9.8 100 0.0 S 11 15 6 8 1023.1 1023.1 0.0
12/10:30pm 10.2 7.8 10.2 100 0.0 SSE 13 17 7 9 1023.2 1023.2 0.0
12/10:00pm 10.1 8.4 10.0 99 0.1 S 9 13 5 7 1023.5 1023.5 0.0
12/09:30pm 10.6 8.3 10.4 99 0.1 SSE 13 19 7 10 1023.4 1023.4 0.0
12/09:00pm 10.8 8.5 10.5 98 0.2 SSE 13 17 7 9 1023.3 1023.3 0.0
12/08:30pm 10.7 8.0 10.2 97 0.3 SSE 15 22 8 12 1022.8 1022.8 0.0
12/08:00pm 10.8 8.5 10.3 97 0.3 SSE 13 20 7 11 1022.5 1022.5 0.0
12/07:30pm 11.0 8.2 10.1 94 0.5 SSE 15 22 8 12 1022.4 1022.4 0.0
12/07:00pm 11.2 8.5 10.3 94 0.5 SSE 15 22 8 12 1022.1 1022.1 0.0
12/06:30pm 11.4 8.3 10.3 93 0.6 SSE 17 20 9 11 1021.5 1021.5 0.0
12/06:00pm 11.6 8.1 10.2 91 0.7 SSE 19 26 10 14 1021.1 1021.1 0.0
12/05:30pm 11.7 8.1 9.9 89 0.9 SSE 19 28 10 15 1020.6 1020.6 0.0
12/05:00pm 12.0 8.4 9.7 86 1.2 S 19 26 10 14 1020.3 1020.3 0.0
12/04:30pm 12.0 8.3 9.6 85 1.2 S 19 28 10 15 1020.1 1020.1 0.0
12/04:00pm 13.2 9.0 9.6 79 1.8 SSE 22 32 12 17 1019.8 1019.8 0.0
12/03:30pm 13.2 8.9 9.3 77 2.0 SSE 22 30 12 16 1019.6 1019.6 0.0
12/03:00pm 12.9 9.9 9.2 78 1.9 SSE 15 24 8 13 1019.5 1019.5 0.0
12/02:30pm 13.0 10.4 9.4 79 1.8 SSE 13 20 7 11 1019.4 1019.4 0.0
12/02:00pm 12.8 9.9 9.8 82 1.5 SSE 15 22 8 12 1019.4 1019.4 0.0
12/01:30pm 12.0 9.5 9.7 86 1.2 SSE 13 19 7 10 1019.5 1019.5 0.0
12/01:00pm 12.9 10.2 10.4 85 1.3 SSE 15 20 8 11 1019.6 1019.6 0.0
12/12:30pm 12.2 8.4 9.8 85 1.2 SSE 20 28 11 15 1019.7 1019.7 0.0
12/12:00pm 12.1 8.0 8.8 80 1.6 SE 20 32 11 17 1020.0 1020.0 0.0
12/11:30am 12.2 9.0 9.9 86 1.2 SE 17 22 9 12 1020.0 1020.0 0.0
12/11:00am 11.8 8.2 9.9 88 1.0 SE 19 26 10 14 1020.1 1020.1 0.0
12/10:30am 11.5 8.0 10.2 92 0.7 SE 19 30 10 16 1020.0 1020.0 0.0
12/10:00am 11.2 8.7 11.0 99 0.1 SE 15 20 8 11 1019.7 1019.7 0.0
12/09:30am 10.1 7.7 10.1 100 0.0 SE 13 19 7 10 1019.5 1019.5 0.0
12/09:00am 9.5 7.3 9.5 100 0.0 SE 11 15 6 8 1019.1 1019.1 7.4

Latest Capital City Observations: Canberra | Sydney | Melbourne | Brisbane | Adelaide | Perth | Hobart | Darwin

Other formats

Comma delimited format used in spreadsheet applications
http://www.bom.gov.au/fwo/IDV60901/IDV60901.94865.axf

JavaScript Object Notation format (JSON) in row-major order
http://www.bom.gov.au/fwo/IDV60901/IDV60901.94865.json

Data quality

Most of these data are generated automatically and are frequently updated. Quality checks on data are not normally performed. It is possible for incorrect values to appear. Refer to information at About Latest Weather Observations and please check the disclaimer before using these data.